Time;durP1;ratioP1;P1;durP2;ratioP2;P2;SDS_P1;SDS_P2;PMS_P1;PMS_P2;Temp;Humidity;BMP_temperature;BMP_pressure;BME280_temperature;BME280_humidity;BME280_pressure;Samples;Min_cycle;Max_cycle;Signal;HPM_P1;HPM_P2
2021/07/28 00:02:04;;;;;;;7.10;6.10;;;19.30;99.90;;;;;;5035639;28;20414;-65
2021/07/28 00:04:38;;;;;;;8.20;6.40;;;19.30;99.90;;;;;;5036589;28;20465;-65
2021/07/28 00:07:04;;;;;;;9.57;6.43;;;19.30;99.90;;;;;;5036102;28;20403;-64
2021/07/28 00:09:30;;;;;;;9.37;7.13;;;19.30;99.90;;;;;;5036398;28;20437;-65
2021/07/28 00:11:56;;;;;;;8.27;5.90;;;19.30;99.90;;;;;;5021122;28;20420;-65
2021/07/28 00:14:22;;;;;;;7.70;6.07;;;19.30;99.90;;;;;;5016594;28;20408;-65
2021/07/28 00:16:47;;;;;;;7.37;6.67;;;19.30;99.90;;;;;;5016007;28;20245;-65
2021/07/28 00:19:19;;;;;;;9.50;7.30;;;19.20;99.90;;;;;;5016346;28;20209;-65
2021/07/28 00:24:32;;;;;;;10.20;7.73;;;19.20;99.90;;;;;;5016341;28;20445;-65
2021/07/28 00:27:01;;;;;;;9.50;5.83;;;19.10;99.90;;;;;;5032475;28;20462;-65
2021/07/28 00:29:27;;;;;;;9.47;7.80;;;19.10;99.90;;;;;;5035875;28;20417;-65
2021/07/28 00:31:53;;;;;;;8.23;7.43;;;19.00;99.90;;;;;;5035829;28;20790;-65
2021/07/28 00:34:19;;;;;;;7.53;5.87;;;19.00;99.90;;;;;;5035776;28;20407;-65
2021/07/28 00:36:44;;;;;;;9.53;6.83;;;19.00;99.90;;;;;;5035582;28;20173;-65
2021/07/28 00:39:10;;;;;;;9.80;6.70;;;18.90;99.90;;;;;;5035638;28;20211;-65
2021/07/28 00:41:43;;;;;;;10.17;7.80;;;19.00;99.90;;;;;;5035406;28;20262;-65
2021/07/28 00:44:08;;;;;;;8.60;7.27;;;19.00;99.90;;;;;;5034409;28;20211;-65
2021/07/28 00:46:34;;;;;;;9.03;7.27;;;19.00;99.90;;;;;;5035353;28;20412;-66
2021/07/28 00:49:00;;;;;;;8.90;6.07;;;19.00;99.90;;;;;;5035498;28;20198;-64
2021/07/28 00:51:26;;;;;;;8.50;6.80;;;18.90;99.90;;;;;;5035584;28;20169;-66
2021/07/28 00:53:51;;;;;;;7.57;5.73;;;18.90;99.90;;;;;;5035440;28;20400;-65
2021/07/28 00:56:21;;;;;;;6.33;5.60;;;18.90;99.90;;;;;;5018759;28;20280;-64
2021/07/28 00:58:47;;;;;;;13.60;9.10;;;18.90;99.90;;;;;;5015234;28;20203;-64
2021/07/28 01:01:13;;;;;;;9.97;7.93;;;18.90;99.90;;;;;;5015697;28;20457;-64
2021/07/28 01:03:39;;;;;;;7.97;6.63;;;18.90;99.90;;;;;;5015608;28;20198;-65
2021/07/28 01:06:07;;;;;;;9.93;6.93;;;18.90;99.90;;;;;;5015372;28;20463;-65
2021/07/28 01:08:33;;;;;;;10.13;7.07;;;18.80;99.90;;;;;;5014926;28;20439;-65
2021/07/28 01:11:01;;;;;;;9.43;6.00;;;18.80;99.90;;;;;;5016503;28;20417;-64
2021/07/28 01:13:29;;;;;;;7.33;6.47;;;18.70;99.90;;;;;;5015241;28;20894;-64
2021/07/28 01:16:16;;;;;;;10.37;7.00;;;18.70;99.90;;;;;;5015418;28;20763;-64
2021/07/28 01:18:43;;;;;;;8.53;6.53;;;18.70;99.90;;;;;;5014780;28;20526;-65
2021/07/28 01:21:10;;;;;;;7.43;6.30;;;18.70;99.90;;;;;;5015841;28;20430;-65
2021/07/28 01:23:37;;;;;;;7.10;5.83;;;18.60;99.90;;;;;;5015151;28;20456;-65
2021/07/28 01:26:05;;;;;;;7.50;5.60;;;18.60;99.90;;;;;;5032705;28;20449;-65
2021/07/28 01:28:32;;;;;;;5.97;5.37;;;18.70;99.90;;;;;;5034435;28;20432;-65
2021/07/28 01:30:59;;;;;;;8.70;6.30;;;18.70;99.90;;;;;;5034610;28;20437;-66
2021/07/28 01:33:30;;;;;;;6.63;5.57;;;18.70;99.90;;;;;;5034479;28;20933;-65
2021/07/28 01:35:58;;;;;;;5.83;4.70;;;18.70;99.90;;;;;;5033241;28;20829;-66
2021/07/28 01:38:27;;;;;;;10.63;7.17;;;18.70;99.90;;;;;;5034307;28;20453;-65
2021/07/28 01:40:58;;;;;;;5.97;5.30;;;18.70;99.90;;;;;;5034646;28;20466;-64
2021/07/28 01:43:25;;;;;;;11.10;7.17;;;18.70;99.90;;;;;;5033423;28;20506;-64
2021/07/28 01:45:51;;;;;;;6.47;5.27;;;18.70;99.90;;;;;;5015970;28;20398;-64
2021/07/28 01:48:16;;;;;;;7.23;6.10;;;18.70;99.90;;;;;;5014439;28;20444;-65
2021/07/28 01:50:45;;;;;;;10.30;6.37;;;18.80;99.90;;;;;;5014843;28;20183;-65
2021/07/28 01:53:12;;;;;;;8.80;5.60;;;18.70;99.90;;;;;;5014679;28;20168;-64
2021/07/28 01:55:37;;;;;;;7.17;5.80;;;18.60;99.90;;;;;;5014720;28;20966;-64
2021/07/28 01:58:03;;;;;;;7.57;6.20;;;18.60;99.90;;;;;;5031793;28;20531;-65
2021/07/28 02:00:29;;;;;;;9.20;6.20;;;18.60;99.90;;;;;;5034204;28;20190;-65
2021/07/28 02:03:02;;;;;;;10.43;6.20;;;18.60;99.90;;;;;;5034087;28;20242;-64
2021/07/28 02:05:31;;;;;;;7.03;6.33;;;18.60;99.90;;;;;;5034493;28;20167;-65
2021/07/28 02:08:07;;;;;;;7.03;6.33;;;18.60;99.90;;;;;;5033572;28;20988;-65
2021/07/28 02:10:38;;;;;;;6.67;5.83;;;18.60;99.90;;;;;;5034189;28;20572;-65
2021/07/28 02:13:05;;;;;;;10.90;7.70;;;18.60;99.90;;;;;;4994860;28;20478;-65
2021/07/28 02:15:32;;;;;;;9.47;7.37;;;18.60;99.90;;;;;;4994702;28;20741;-65
2021/07/28 02:17:58;;;;;;;7.13;5.73;;;18.60;99.90;;;;;;4994321;28;20437;-64
2021/07/28 02:20:25;;;;;;;7.27;6.40;;;18.60;99.90;;;;;;4994647;28;20427;-65
2021/07/28 02:22:51;;;;;;;8.90;7.00;;;18.60;99.90;;;;;;4994517;28;20448;-65
2021/07/28 02:25:17;;;;;;;9.33;6.20;;;18.50;99.90;;;;;;4994406;28;20415;-65
2021/07/28 02:27:44;;;;;;;7.30;6.13;;;18.50;99.90;;;;;;5032388;28;20269;-65
2021/07/28 02:30:11;;;;;;;7.83;5.60;;;18.50;99.90;;;;;;5033717;28;20441;-65
2021/07/28 02:32:38;;;;;;;7.73;6.20;;;18.40;99.90;;;;;;5033717;28;20398;-64
2021/07/28 02:35:05;;;;;;;6.60;6.00;;;18.40;99.90;;;;;;5033419;28;20827;-65
2021/07/28 02:37:31;;;;;;;6.30;5.00;;;18.40;99.90;;;;;;5032953;28;20429;-64
2021/07/28 02:39:57;;;;;;;6.23;5.17;;;18.40;99.90;;;;;;5033749;28;20438;-65
2021/07/28 02:42:23;;;;;;;6.60;4.80;;;18.40;99.90;;;;;;5033145;28;20417;-64
2021/07/28 02:44:49;;;;;;;9.50;6.20;;;18.30;99.90;;;;;;5033452;28;20510;-64
2021/07/28 02:47:14;;;;;;;10.60;5.97;;;18.30;99.90;;;;;;5033094;28;20573;-65
2021/07/28 02:49:40;;;;;;;7.47;6.60;;;18.30;99.90;;;;;;5033386;28;20217;-65
2021/07/28 02:52:06;;;;;;;9.40;6.90;;;18.30;99.90;;;;;;5033557;28;20170;-64
2021/07/28 02:54:31;;;;;;;7.60;6.60;;;18.30;99.90;;;;;;5033593;28;20176;-65
2021/07/28 02:56:57;;;;;;;8.07;6.73;;;18.20;99.90;;;;;;5016538;28;20755;-65
2021/07/28 02:59:23;;;;;;;12.33;6.97;;;18.20;99.90;;;;;;5013610;28;20195;-64
2021/07/28 03:01:49;;;;;;;13.63;8.40;;;18.20;99.90;;;;;;5013841;28;20167;-64
2021/07/28 03:04:15;;;;;;;11.70;8.57;;;18.10;99.90;;;;;;5013601;28;20226;-65
2021/07/28 03:06:41;;;;;;;8.90;7.20;;;18.10;99.90;;;;;;5013237;28;20415;-64
2021/07/28 03:09:07;;;;;;;10.73;8.10;;;18.10;99.90;;;;;;5013380;28;20419;-63
2021/07/28 03:11:32;;;;;;;14.13;8.77;;;18.10;99.90;;;;;;5027973;28;20182;-63
2021/07/28 03:13:58;;;;;;;9.47;7.27;;;18.10;99.90;;;;;;5033184;28;20171;-63
2021/07/28 03:16:24;;;;;;;12.07;8.73;;;18.00;99.90;;;;;;5033183;28;20175;-64
2021/07/28 03:18:50;;;;;;;12.33;7.57;;;18.00;99.90;;;;;;5032852;28;20508;-63
2021/07/28 03:21:15;;;;;;;17.43;9.60;;;18.00;99.90;;;;;;5036839;28;20167;-64
2021/07/28 03:23:41;;;;;;;10.70;8.83;;;18.00;99.90;;;;;;5037201;28;20235;-64
2021/07/28 03:26:07;;;;;;;13.23;9.93;;;18.00;99.90;;;;;;5035517;28;20181;-63
2021/07/28 03:28:33;;;;;;;11.83;7.87;;;18.00;99.90;;;;;;5036549;28;20673;-64
2021/07/28 03:30:58;;;;;;;11.27;8.60;;;18.00;99.90;;;;;;5035017;28;20205;-64
2021/07/28 03:33:24;;;;;;;14.23;9.13;;;18.00;99.90;;;;;;5017280;28;20242;-64
2021/07/28 03:35:49;;;;;;;11.43;9.03;;;18.00;99.90;;;;;;5017157;28;20190;-63
2021/07/28 03:38:15;;;;;;;10.90;8.60;;;18.00;99.90;;;;;;5016566;28;20238;-64
2021/07/28 03:40:41;;;;;;;13.00;10.60;;;18.00;99.90;;;;;;5017319;28;20655;-64
2021/07/28 03:43:07;;;;;;;15.30;10.23;;;18.00;99.90;;;;;;5017114;28;20286;-65
2021/07/28 03:45:33;;;;;;;14.10;10.17;;;18.00;99.90;;;;;;5015768;28;20865;-66
2021/07/28 03:47:58;;;;;;;10.07;8.10;;;18.00;99.90;;;;;;5016486;28;20201;-64
2021/07/28 03:50:24;;;;;;;10.23;7.03;;;18.00;99.90;;;;;;5015852;28;20494;-64
2021/07/28 03:52:50;;;;;;;12.00;8.90;;;18.00;99.90;;;;;;5016777;28;20659;-64
2021/07/28 03:55:16;;;;;;;11.57;8.13;;;18.00;99.90;;;;;;5016855;28;20171;-64
2021/07/28 03:57:41;;;;;;;10.60;9.40;;;18.00;99.90;;;;;;5016366;28;20526;-64
2021/07/28 04:00:08;;;;;;;13.67;10.13;;;18.00;99.90;;;;;;5015592;28;20639;-64
2021/07/28 04:02:33;;;;;;;10.60;7.90;;;18.00;99.90;;;;;;5034752;28;20179;-64
2021/07/28 04:04:59;;;;;;;11.60;9.20;;;18.00;99.90;;;;;;5036593;28;20436;-64
2021/07/28 04:07:25;;;;;;;14.83;9.20;;;18.00;99.90;;;;;;5035920;28;20409;-64
2021/07/28 04:09:50;;;;;;;15.33;9.33;;;18.10;99.90;;;;;;5036313;28;20196;-64
2021/07/28 04:12:17;;;;;;;15.13;9.97;;;18.10;99.90;;;;;;5036264;28;20264;-64
2021/07/28 04:14:42;;;;;;;10.30;7.30;;;18.20;99.90;;;;;;5036199;28;20178;-64
2021/07/28 04:17:08;;;;;;;12.27;9.37;;;18.20;99.90;;;;;;5018407;28;20466;-64
2021/07/28 04:19:34;;;;;;;18.33;9.20;;;18.20;99.90;;;;;;5015162;28;20286;-64
2021/07/28 04:21:59;;;;;;;15.33;9.07;;;18.20;99.90;;;;;;5016443;28;20268;-64
2021/07/28 04:24:25;;;;;;;13.50;8.27;;;18.20;99.90;;;;;;5016459;28;20213;-64
2021/07/28 04:26:51;;;;;;;13.60;9.97;;;18.30;99.90;;;;;;5015758;28;20666;-64
2021/07/28 04:29:16;;;;;;;14.10;10.07;;;18.20;99.90;;;;;;5016019;28;20204;-64
2021/07/28 04:31:42;;;;;;;12.73;9.17;;;18.20;99.90;;;;;;5030065;28;20271;-64
2021/07/28 04:34:08;;;;;;;13.70;11.27;;;18.30;99.90;;;;;;5035939;28;20240;-64
2021/07/28 04:36:33;;;;;;;12.37;8.93;;;18.30;99.90;;;;;;5035431;28;20422;-65
2021/07/28 04:39:02;;;;;;;12.27;8.53;;;18.40;99.90;;;;;;5035578;28;20195;-64
2021/07/28 04:41:28;;;;;;;14.97;10.20;;;18.50;99.90;;;;;;5030130;28;20190;-65
2021/07/28 04:43:54;;;;;;;11.47;8.67;;;18.60;99.90;;;;;;5015776;28;20469;-64
2021/07/28 04:46:20;;;;;;;14.40;9.63;;;18.60;99.90;;;;;;5015945;28;20396;-65
2021/07/28 04:48:46;;;;;;;12.97;9.30;;;18.60;99.90;;;;;;5015276;28;20199;-64
2021/07/28 04:51:12;;;;;;;13.53;9.37;;;18.50;99.90;;;;;;5015833;28;20173;-64
2021/07/28 04:53:38;;;;;;;13.10;8.40;;;18.50;99.90;;;;;;5015585;28;20752;-64
2021/07/28 04:56:03;;;;;;;15.63;9.57;;;18.50;99.90;;;;;;5015501;28;20256;-64
2021/07/28 04:58:29;;;;;;;13.53;8.73;;;18.60;99.90;;;;;;5015258;28;20199;-64
2021/07/28 05:00:55;;;;;;;13.30;9.73;;;18.60;99.90;;;;;;5015766;28;20635;-64
2021/07/28 05:03:21;;;;;;;14.30;8.90;;;18.70;99.90;;;;;;5015362;28;20196;-64
2021/07/28 05:05:46;;;;;;;14.43;11.37;;;18.80;99.90;;;;;;5015591;28;20192;-64
2021/07/28 05:08:12;;;;;;;9.90;8.30;;;18.80;99.90;;;;;;5015119;28;20528;-64
2021/07/28 05:10:38;;;;;;;10.47;8.60;;;18.90;99.90;;;;;;5017662;28;20235;-64
2021/07/28 05:13:04;;;;;;;9.57;6.80;;;19.00;99.90;;;;;;5035133;28;20412;-65
2021/07/28 05:15:29;;;;;;;12.00;8.57;;;19.00;99.90;;;;;;5035253;28;20182;-64
2021/07/28 05:17:55;;;;;;;11.67;8.07;;;19.00;99.90;;;;;;5034641;28;20439;-64
2021/07/28 05:20:21;;;;;;;7.90;6.03;;;19.10;99.90;;;;;;5035095;28;20179;-64
2021/07/28 05:22:48;;;;;;;13.30;6.77;;;19.00;99.90;;;;;;5035455;28;20216;-64
2021/07/28 05:25:14;;;;;;;7.77;6.23;;;19.00;99.90;;;;;;5033441;28;20162;-64
2021/07/28 05:27:40;;;;;;;8.27;5.80;;;19.00;99.90;;;;;;5022237;28;20845;-65
2021/07/28 05:30:06;;;;;;;6.03;4.87;;;19.00;99.90;;;;;;5015245;28;20422;-65
2021/07/28 05:32:32;;;;;;;7.80;7.00;;;19.00;99.90;;;;;;5015075;28;20417;-66
2021/07/28 05:34:58;;;;;;;7.07;5.83;;;19.00;99.90;;;;;;5015009;28;20911;-66
2021/07/28 05:37:25;;;;;;;8.87;6.07;;;19.00;99.90;;;;;;5014575;28;20406;-65
2021/07/28 05:39:51;;;;;;;8.77;6.63;;;19.10;99.90;;;;;;5014656;28;20202;-65
2021/07/28 05:42:16;;;;;;;6.60;5.90;;;19.20;99.90;;;;;;5026394;28;20512;-65
2021/07/28 05:44:42;;;;;;;9.20;6.73;;;19.30;99.90;;;;;;5014873;28;20454;-65
2021/07/28 05:47:09;;;;;;;7.20;5.03;;;19.30;99.90;;;;;;5013803;28;20198;-65
2021/07/28 05:49:34;;;;;;;5.83;5.20;;;19.40;99.90;;;;;;5024497;28;20194;-65
2021/07/28 05:52:00;;;;;;;4.40;4.10;;;19.40;99.90;;;;;;5034315;28;20401;-63
2021/07/28 05:54:26;;;;;;;4.90;4.20;;;19.40;99.90;;;;;;5016237;28;20227;-64
2021/07/28 05:56:52;;;;;;;7.17;4.77;;;19.40;99.90;;;;;;5012625;28;20444;-65
2021/07/28 05:59:17;;;;;;;5.57;4.90;;;19.60;99.90;;;;;;5014200;28;20197;-64
2021/07/28 06:01:43;;;;;;;6.23;4.30;;;19.60;99.90;;;;;;5014313;28;20274;-65
2021/07/28 06:04:09;;;;;;;5.93;4.47;;;19.70;99.90;;;;;;5014137;28;20207;-66
2021/07/28 06:06:35;;;;;;;5.00;4.47;;;19.70;99.90;;;;;;5014017;28;20465;-63
2021/07/28 06:09:01;;;;;;;4.50;4.07;;;19.70;99.90;;;;;;5018709;28;20468;-62
2021/07/28 06:11:27;;;;;;;4.47;3.90;;;19.70;99.90;;;;;;5034050;28;20177;-62
2021/07/28 06:13:52;;;;;;;3.60;3.30;;;19.70;99.90;;;;;;5034258;28;20467;-61
2021/07/28 06:16:18;;;;;;;8.00;4.77;;;19.60;99.90;;;;;;5033960;28;20172;-62
2021/07/28 06:18:44;;;;;;;3.90;3.50;;;19.70;99.90;;;;;;5033172;28;20270;-62
2021/07/28 06:21:10;;;;;;;4.07;3.30;;;19.80;99.90;;;;;;5019689;28;20940;-63
2021/07/28 06:23:35;;;;;;;7.00;3.40;;;19.80;99.90;;;;;;5013910;28;20599;-59
2021/07/28 06:26:01;;;;;;;4.23;3.80;;;20.00;99.90;;;;;;5012682;28;20237;-63
2021/07/28 06:28:27;;;;;;;3.97;3.30;;;20.10;99.90;;;;;;5013356;28;20195;-61
2021/07/28 06:30:53;;;;;;;4.90;3.83;;;20.20;99.90;;;;;;5013001;28;20191;-63
2021/07/28 06:33:20;;;;;;;4.73;4.23;;;20.30;99.90;;;;;;5012569;28;20178;-63
2021/07/28 06:35:52;;;;;;;4.60;3.60;;;20.30;99.90;;;;;;5012832;28;20410;-65
2021/07/28 06:38:19;;;;;;;8.10;4.50;;;20.40;99.90;;;;;;5013380;28;20517;-63
2021/07/28 06:40:45;;;;;;;5.23;3.90;;;20.50;99.90;;;;;;5013579;28;20413;-62
2021/07/28 06:43:12;;;;;;;5.40;4.23;;;20.40;99.90;;;;;;5013822;28;20484;-62
2021/07/28 06:45:37;;;;;;;7.00;4.70;;;20.40;99.90;;;;;;5013821;28;20413;-64
2021/07/28 06:48:03;;;;;;;4.67;3.80;;;20.50;99.90;;;;;;5013130;28;20425;-66
2021/07/28 06:50:29;;;;;;;4.90;4.40;;;20.40;99.90;;;;;;5012362;28;20175;-64
2021/07/28 06:52:55;;;;;;;4.13;3.23;;;20.40;99.90;;;;;;5013646;28;20429;-65
2021/07/28 06:55:20;;;;;;;5.20;4.13;;;20.40;99.90;;;;;;5012818;28;20633;-66
2021/07/28 06:57:46;;;;;;;5.70;5.20;;;20.30;99.90;;;;;;5013110;28;20166;-66
2021/07/28 07:00:12;;;;;;;5.50;5.00;;;20.20;99.90;;;;;;5013316;28;20224;-67
2021/07/28 07:02:38;;;;;;;5.93;4.97;;;20.10;99.90;;;;;;5013427;28;20258;-64
2021/07/28 07:05:05;;;;;;;6.53;4.30;;;20.10;99.90;;;;;;5013366;28;20516;-65
2021/07/28 07:07:30;;;;;;;6.03;4.53;;;20.00;99.90;;;;;;5013059;28;20171;-70
2021/07/28 07:09:56;;;;;;;6.47;4.27;;;20.00;99.90;;;;;;5013526;28;20414;-65
2021/07/28 07:12:22;;;;;;;5.37;4.87;;;20.00;99.90;;;;;;5013631;28;20175;-68
2021/07/28 07:14:48;;;;;;;5.80;4.60;;;19.90;99.90;;;;;;5012316;28;20675;-68
2021/07/28 07:17:14;;;;;;;5.13;4.30;;;19.90;99.90;;;;;;5011699;28;20425;-67
2021/07/28 07:19:40;;;;;;;5.67;4.43;;;19.80;99.90;;;;;;5013248;28;20422;-64
2021/07/28 07:22:06;;;;;;;7.00;5.13;;;19.70;99.90;;;;;;5012058;28;20400;-65
2021/07/28 07:24:32;;;;;;;4.80;4.30;;;19.70;99.90;;;;;;5013353;28;20212;-65
2021/07/28 07:26:57;;;;;;;6.80;3.97;;;19.70;99.90;;;;;;5012585;28;20912;-64
2021/07/28 07:29:23;;;;;;;4.97;3.30;;;19.80;99.90;;;;;;5013206;28;20186;-65
2021/07/28 07:31:49;;;;;;;4.60;3.23;;;19.80;99.90;;;;;;5013223;28;20201;-65
2021/07/28 07:34:15;;;;;;;3.43;2.97;;;19.80;99.90;;;;;;5013466;28;20580;-65
2021/07/28 07:36:40;;;;;;;8.97;5.80;;;19.90;99.90;;;;;;5012835;28;20660;-65
2021/07/28 07:39:07;;;;;;;4.47;3.60;;;19.90;99.90;;;;;;5013250;28;20206;-65
2021/07/28 07:41:33;;;;;;;6.50;4.47;;;20.00;99.90;;;;;;5013049;28;20170;-65
2021/07/28 07:44:00;;;;;;;4.53;3.40;;;20.00;99.90;;;;;;5013108;28;20449;-63
2021/07/28 07:46:26;;;;;;;4.83;3.90;;;20.00;99.90;;;;;;5012554;28;20413;-67
2021/07/28 07:48:52;;;;;;;4.83;4.07;;;20.10;99.90;;;;;;5010593;28;20433;-65
2021/07/28 07:51:18;;;;;;;5.40;4.20;;;20.10;99.90;;;;;;5012361;28;20406;-65
2021/07/28 07:53:43;;;;;;;11.40;4.30;;;20.10;99.90;;;;;;5012454;28;20500;-66
2021/07/28 07:56:09;;;;;;;8.10;4.87;;;20.20;99.90;;;;;;5012443;28;20497;-65
2021/07/28 07:58:35;;;;;;;8.93;4.77;;;20.30;99.90;;;;;;5012500;28;20195;-66
2021/07/28 08:01:11;;;;;;;5.20;3.67;;;20.30;99.90;;;;;;5012394;28;20428;-65
2021/07/28 08:03:38;;;;;;;6.27;3.70;;;20.30;99.90;;;;;;5012856;28;20209;-64
2021/07/28 08:06:04;;;;;;;8.07;3.67;;;20.30;99.90;;;;;;5014450;28;20500;-64
2021/07/28 08:08:31;;;;;;;5.60;3.67;;;20.20;99.90;;;;;;5016324;28;20519;-64
2021/07/28 08:10:57;;;;;;;4.50;3.63;;;20.20;99.90;;;;;;5016652;28;20568;-66
2021/07/28 08:13:23;;;;;;;4.17;3.77;;;20.20;99.90;;;;;;5016416;28;20429;-65
2021/07/28 08:15:49;;;;;;;4.57;3.67;;;20.10;99.90;;;;;;5016461;28;20868;-65
2021/07/28 08:18:15;;;;;;;4.40;3.00;;;20.10;99.90;;;;;;5016036;28;20448;-64
2021/07/28 08:20:40;;;;;;;6.63;4.17;;;20.00;99.90;;;;;;5016235;28;20414;-64
2021/07/28 08:23:06;;;;;;;6.20;3.67;;;19.90;99.90;;;;;;5016284;28;20197;-64
2021/07/28 08:25:32;;;;;;;3.47;3.17;;;19.90;99.90;;;;;;5016340;28;20166;-65
2021/07/28 08:27:57;;;;;;;6.87;4.30;;;19.80;99.90;;;;;;5014512;28;20194;-64
2021/07/28 08:30:23;;;;;;;3.53;3.03;;;19.80;99.90;;;;;;5015976;28;20179;-64
2021/07/28 08:32:49;;;;;;;6.03;3.57;;;19.70;99.90;;;;;;5016139;28;20171;-64
2021/07/28 08:35:15;;;;;;;4.10;3.30;;;19.70;99.90;;;;;;5016155;28;20173;-64
2021/07/28 08:37:41;;;;;;;3.23;2.83;;;19.70;99.90;;;;;;5015802;28;20529;-64
2021/07/28 08:40:12;;;;;;;7.97;3.30;;;19.60;99.90;;;;;;5015964;28;20406;-65
2021/07/28 08:42:41;;;;;;;11.00;4.77;;;19.60;99.90;;;;;;5016214;28;20481;-64
2021/07/28 08:45:07;;;;;;;5.00;3.40;;;19.60;99.90;;;;;;5015863;28;20449;-64
2021/07/28 08:47:36;;;;;;;2.93;2.50;;;19.60;99.90;;;;;;5015727;28;20414;-64
2021/07/28 08:50:04;;;;;;;5.03;2.80;;;19.60;99.90;;;;;;5015586;28;20402;-64
2021/07/28 08:52:33;;;;;;;5.83;3.97;;;19.60;99.90;;;;;;5015497;28;20409;-64
2021/07/28 08:54:59;;;;;;;3.10;2.80;;;19.60;99.90;;;;;;5015447;28;20409;-64
2021/07/28 08:57:27;;;;;;;3.57;2.97;;;19.60;99.90;;;;;;5015480;28;20406;-64
2021/07/28 08:59:56;;;;;;;2.83;2.63;;;19.70;99.90;;;;;;5015555;28;20553;-65
2021/07/28 09:02:22;;;;;;;2.63;2.43;;;19.70;99.90;;;;;;5015554;28;20431;-64
2021/07/28 09:04:48;;;;;;;3.83;3.43;;;19.90;99.90;;;;;;5015501;28;20831;-64
2021/07/28 09:07:14;;;;;;;3.47;2.70;;;20.10;99.90;;;;;;5015312;28;20410;-65
2021/07/28 09:09:57;;;;;;;3.23;3.03;;;20.30;99.90;;;;;;5015289;28;20187;-64
2021/07/28 09:12:33;;;;;;;3.30;3.00;;;20.60;99.90;;;;;;5015226;28;20402;-64
2021/07/28 09:15:05;;;;;;;5.50;4.00;;;20.80;99.90;;;;;;5015279;28;20851;-64
2021/07/28 09:17:34;;;;;;;5.10;3.37;;;21.00;99.90;;;;;;5014237;28;20422;-65
2021/07/28 09:20:00;;;;;;;3.70;2.37;;;21.20;99.90;;;;;;5013940;28;20913;-64
2021/07/28 09:22:32;;;;;;;3.07;2.70;;;21.40;99.90;;;;;;5015149;28;20402;-65
2021/07/28 09:25:10;;;;;;;3.13;2.60;;;21.50;99.90;;;;;;5013954;28;20461;-64
2021/07/28 09:27:51;;;;;;;2.80;2.20;;;21.70;99.90;;;;;;5014621;28;20406;-65
2021/07/28 09:30:34;;;;;;;2.60;2.40;;;21.90;99.90;;;;;;5015093;28;20436;-65
2021/07/28 09:33:10;;;;;;;3.80;3.40;;;22.30;99.90;;;;;;5014529;28;20399;-65
2021/07/28 09:35:47;;;;;;;3.20;2.90;;;22.60;99.90;;;;;;5014943;28;20823;-66
2021/07/28 09:38:36;;;;;;;2.40;2.30;;;22.90;99.90;;;;;;5013208;28;20515;-65
2021/07/28 09:41:18;;;;;;;3.43;3.13;;;23.20;99.90;;;;;;5014754;28;20871;-65
2021/07/28 09:44:02;;;;;;;2.60;2.33;;;23.50;99.90;;;;;;5014884;28;20420;-65
2021/07/28 09:46:50;;;;;;;1.80;1.70;;;23.70;99.90;;;;;;5014850;28;20376;-65
2021/07/28 09:49:19;;;;;;;3.03;2.73;;;23.90;99.90;;;;;;5014744;28;20437;-66
2021/07/28 09:51:46;;;;;;;2.77;2.53;;;24.00;99.90;;;;;;5014764;28;20410;-65
2021/07/28 09:54:13;;;;;;;2.90;2.47;;;24.10;99.90;;;;;;5014636;28;20417;-65
2021/07/28 09:56:46;;;;;;;2.33;2.00;;;24.20;99.90;;;;;;5014493;28;20828;-66
2021/07/28 09:59:12;;;;;;;2.67;2.47;;;24.30;99.90;;;;;;5014440;28;20400;-65
2021/07/28 10:01:37;;;;;;;2.60;2.40;;;24.40;99.90;;;;;;5014552;28;20410;-65
2021/07/28 10:04:05;;;;;;;2.10;2.00;;;24.70;99.90;;;;;;5014351;28;20458;-66
2021/07/28 10:06:40;;;;;;;2.73;2.30;;;24.90;99.90;;;;;;5014310;28;20167;-66
2021/07/28 10:09:11;;;;;;;3.30;2.50;;;24.90;99.90;;;;;;5014531;28;20427;-67
2021/07/28 10:11:42;;;;;;;3.43;2.63;;;25.10;99.90;;;;;;5014503;28;20407;-65
2021/07/28 10:14:10;;;;;;;2.20;2.00;;;25.40;99.90;;;;;;5014113;28;20495;-65
2021/07/28 10:16:36;;;;;;;2.40;2.20;;;25.60;99.90;;;;;;5013903;28;20927;-66
2021/07/28 10:19:03;;;;;;;2.57;2.37;;;26.00;99.90;;;;;;5014060;28;20408;-67
2021/07/28 10:21:34;;;;;;;2.27;2.03;;;26.40;98.90;;;;;;5014238;28;20475;-65
2021/07/28 10:24:01;;;;;;;2.73;2.50;;;26.40;98.80;;;;;;5014204;28;20442;-66
2021/07/28 10:26:27;;;;;;;5.77;3.43;;;26.30;97.80;;;;;;5012708;28;20404;-67
2021/07/28 10:28:54;;;;;;;3.93;3.60;;;26.10;97.90;;;;;;5012978;28;20393;-66
2021/07/28 10:31:22;;;;;;;2.33;2.13;;;25.90;98.40;;;;;;5013757;28;20399;-66
2021/07/28 10:33:53;;;;;;;2.90;2.70;;;25.60;98.20;;;;;;5013847;28;20432;-66
2021/07/28 10:36:21;;;;;;;2.63;2.10;;;25.60;99.00;;;;;;5013776;28;20419;-67
2021/07/28 10:38:56;;;;;;;3.67;2.40;;;25.50;98.90;;;;;;5012452;28;20417;-66
2021/07/28 10:41:37;;;;;;;2.47;2.30;;;25.40;98.60;;;;;;5013822;28;20411;-66
2021/07/28 10:44:19;;;;;;;2.50;2.30;;;25.20;98.70;;;;;;5013880;28;20480;-65
2021/07/28 10:47:05;;;;;;;2.20;2.00;;;25.10;98.30;;;;;;5012450;28;20452;-65
2021/07/28 10:49:36;;;;;;;2.73;1.70;;;24.70;98.10;;;;;;5016226;28;20524;-65
2021/07/28 10:52:03;;;;;;;2.27;2.00;;;24.50;98.90;;;;;;5013660;28;20387;-65
2021/07/28 10:54:50;;;;;;;2.63;2.43;;;24.30;99.90;;;;;;5013742;28;20437;-64
2021/07/28 10:57:34;;;;;;;2.70;2.50;;;24.20;99.90;;;;;;5013457;28;20441;-66
2021/07/28 11:00:05;;;;;;;1.80;1.70;;;24.40;99.90;;;;;;5013730;28;20416;-66
2021/07/28 11:03:00;;;;;;;3.20;2.90;;;24.60;99.90;;;;;;5013869;28;20405;-65
2021/07/28 11:05:30;;;;;;;2.53;2.30;;;25.10;99.80;;;;;;5017139;28;20431;-65
2021/07/28 11:08:05;;;;;;;2.73;2.53;;;25.50;97.90;;;;;;5013200;28;20403;-63
2021/07/28 11:10:38;;;;;;;8.93;4.20;;;25.70;98.50;;;;;;5013754;28;20405;-64
2021/07/28 11:13:05;;;;;;;2.37;2.17;;;25.80;97.90;;;;;;5013540;28;20732;-65
2021/07/28 11:15:31;;;;;;;2.70;2.03;;;25.60;98.30;;;;;;5013798;28;20479;-63
2021/07/28 11:17:57;;;;;;;2.37;2.17;;;25.50;98.00;;;;;;5013072;28;20494;-63
2021/07/28 11:20:39;;;;;;;1.73;1.63;;;25.30;98.70;;;;;;5013358;28;20468;-64
2021/07/28 11:23:28;;;;;;;2.30;2.10;;;25.30;98.40;;;;;;5013434;28;20817;-64
2021/07/28 11:25:58;;;;;;;2.77;2.57;;;25.20;98.20;;;;;;5013353;28;20387;-64
2021/07/28 11:28:25;;;;;;;3.67;2.77;;;25.20;98.50;;;;;;5013078;28;20510;-64
2021/07/28 11:30:54;;;;;;;3.27;2.00;;;25.20;98.30;;;;;;5013300;28;20485;-65
2021/07/28 11:33:20;;;;;;;2.57;2.37;;;25.30;98.00;;;;;;5013111;28;20380;-64
2021/07/28 11:35:48;;;;;;;3.50;2.53;;;25.30;98.60;;;;;;5012053;28;20392;-66
2021/07/28 11:38:34;;;;;;;2.93;2.67;;;25.20;98.40;;;;;;5013190;28;20191;-64
2021/07/28 11:41:01;;;;;;;3.33;2.10;;;25.30;98.50;;;;;;5013335;28;20819;-64
2021/07/28 11:43:35;;;;;;;3.07;2.87;;;25.30;98.40;;;;;;5017162;28;20420;-65
2021/07/28 11:46:12;;;;;;;2.63;2.37;;;25.30;97.50;;;;;;5016961;28;20380;-65
2021/07/28 11:48:41;;;;;;;2.60;2.30;;;25.20;98.50;;;;;;5016674;28;20418;-64
2021/07/28 11:51:22;;;;;;;2.07;1.93;;;25.20;99.60;;;;;;5016892;28;20398;-64
2021/07/28 11:53:47;;;;;;;3.17;2.87;;;25.10;99.20;;;;;;5016752;28;20475;-63
2021/07/28 11:56:15;;;;;;;3.83;2.70;;;25.10;98.80;;;;;;5016839;28;20811;-64
2021/07/28 11:58:43;;;;;;;2.97;2.50;;;25.10;97.90;;;;;;5016262;28;20194;-65
2021/07/28 12:01:21;;;;;;;4.50;2.63;;;25.00;99.00;;;;;;5016785;28;20601;-66
2021/07/28 12:03:50;;;;;;;2.90;2.07;;;24.90;99.10;;;;;;5015380;28;20416;-65
2021/07/28 12:06:34;;;;;;;5.07;2.77;;;24.90;98.80;;;;;;5016662;28;20394;-64
2021/07/28 12:09:15;;;;;;;2.77;2.50;;;24.90;98.70;;;;;;5016666;28;20413;-64
2021/07/28 12:11:49;;;;;;;3.50;2.50;;;24.90;98.60;;;;;;5016661;28;20405;-65
2021/07/28 12:14:31;;;;;;;2.30;2.10;;;24.90;98.80;;;;;;5016612;28;20398;-64
2021/07/28 12:17:05;;;;;;;2.20;2.10;;;24.80;98.10;;;;;;5016308;28;20412;-65
2021/07/28 12:19:39;;;;;;;2.93;2.63;;;24.90;98.50;;;;;;5015074;28;20426;-63
2021/07/28 12:22:12;;;;;;;2.10;1.90;;;24.90;98.10;;;;;;5016281;28;20401;-65
2021/07/28 12:24:46;;;;;;;2.30;2.10;;;24.90;99.20;;;;;;5016325;28;20453;-64
2021/07/28 12:27:30;;;;;;;3.20;2.23;;;25.00;99.40;;;;;;5015973;28;20410;-65
2021/07/28 12:30:16;;;;;;;3.33;2.33;;;25.00;97.50;;;;;;5014542;28;20484;-64
2021/07/28 12:33:17;;;;;;;3.30;2.80;;;25.00;97.60;;;;;;5015847;28;20396;-64
2021/07/28 12:35:55;;;;;;;2.27;2.07;;;24.90;98.20;;;;;;5019388;28;20453;-64
2021/07/28 12:38:21;;;;;;;2.70;2.50;;;24.80;98.80;;;;;;5015781;28;20418;-64
2021/07/28 12:40:57;;;;;;;2.20;2.00;;;24.90;98.70;;;;;;5014664;28;20520;-64
2021/07/28 12:43:24;;;;;;;2.87;2.67;;;25.00;98.50;;;;;;5015904;28;20194;-64
2021/07/28 12:45:55;;;;;;;2.60;2.27;;;25.00;97.80;;;;;;5015977;28;20409;-64
2021/07/28 12:48:21;;;;;;;2.70;2.47;;;24.80;97.90;;;;;;5015400;28;20839;-65
2021/07/28 12:50:47;;;;;;;2.73;2.30;;;24.70;97.60;;;;;;5015691;28;20463;-65
2021/07/28 12:53:13;;;;;;;2.43;1.93;;;24.60;97.30;;;;;;5014767;28;20458;-64
2021/07/28 12:55:39;;;;;;;3.50;2.77;;;24.50;98.10;;;;;;5015686;28;20395;-64